sensor_id;sensor_type;location;lat;lon;timestamp;temperature;humidity
71128;SHT30;59249;59.736;30.568;2022-09-11T00:02:06;6.87;82.86
71128;SHT30;59249;59.736;30.568;2022-09-11T00:04:35;6.88;82.80
71128;SHT30;59249;59.736;30.568;2022-09-11T00:07:04;6.77;83.40
71128;SHT30;59249;59.736;30.568;2022-09-11T00:09:34;6.85;83.26
71128;SHT30;59249;59.736;30.568;2022-09-11T00:12:03;6.71;83.62
71128;SHT30;59249;59.736;30.568;2022-09-11T00:14:33;6.75;83.71
71128;SHT30;59249;59.736;30.568;2022-09-11T00:17:02;6.77;83.72
71128;SHT30;59249;59.736;30.568;2022-09-11T00:19:31;6.66;83.59
71128;SHT30;59249;59.736;30.568;2022-09-11T00:22:00;6.73;83.56
71128;SHT30;59249;59.736;30.568;2022-09-11T00:24:29;6.62;83.42
71128;SHT30;59249;59.736;30.568;2022-09-11T00:26:59;6.63;83.88
71128;SHT30;59249;59.736;30.568;2022-09-11T00:29:28;6.59;83.80
71128;SHT30;59249;59.736;30.568;2022-09-11T00:31:57;6.58;84.13
71128;SHT30;59249;59.736;30.568;2022-09-11T00:34:26;6.57;83.59
71128;SHT30;59249;59.736;30.568;2022-09-11T00:36:55;6.45;83.69
71128;SHT30;59249;59.736;30.568;2022-09-11T00:39:24;6.54;83.63
71128;SHT30;59249;59.736;30.568;2022-09-11T00:41:53;6.50;83.76
71128;SHT30;59249;59.736;30.568;2022-09-11T00:45:00;6.54;84.00
71128;SHT30;59249;59.736;30.568;2022-09-11T00:47:34;6.45;84.00
71128;SHT30;59249;59.736;30.568;2022-09-11T00:50:11;6.41;83.62
71128;SHT30;59249;59.736;30.568;2022-09-11T00:52:50;6.45;83.71
71128;SHT30;59249;59.736;30.568;2022-09-11T00:55:24;6.45;83.69
71128;SHT30;59249;59.736;30.568;2022-09-11T00:57:59;6.38;83.83
71128;SHT30;59249;59.736;30.568;2022-09-11T01:00:30;6.43;83.96
71128;SHT30;59249;59.736;30.568;2022-09-11T01:03:00;6.36;84.09
71128;SHT30;59249;59.736;30.568;2022-09-11T01:05:29;6.23;84.02
71128;SHT30;59249;59.736;30.568;2022-09-11T01:08:01;6.17;83.93
71128;SHT30;59249;59.736;30.568;2022-09-11T01:10:41;6.20;83.69
71128;SHT30;59249;59.736;30.568;2022-09-11T01:13:25;6.23;83.71
71128;SHT30;59249;59.736;30.568;2022-09-11T01:16:07;6.16;83.92
71128;SHT30;59249;59.736;30.568;2022-09-11T01:18:49;6.15;83.78
71128;SHT30;59249;59.736;30.568;2022-09-11T01:22:05;6.19;83.80
71128;SHT30;59249;59.736;30.568;2022-09-11T01:24:53;6.07;83.79
71128;SHT30;59249;59.736;30.568;2022-09-11T01:27:47;6.08;83.99
71128;SHT30;59249;59.736;30.568;2022-09-11T01:30:19;5.96;84.68
71128;SHT30;59249;59.736;30.568;2022-09-11T01:33:12;5.87;84.84
71128;SHT30;59249;59.736;30.568;2022-09-11T01:35:55;5.79;84.72
71128;SHT30;59249;59.736;30.568;2022-09-11T01:38:36;5.86;84.53
71128;SHT30;59249;59.736;30.568;2022-09-11T01:41:11;5.81;84.22
71128;SHT30;59249;59.736;30.568;2022-09-11T01:43:50;5.86;84.27
71128;SHT30;59249;59.736;30.568;2022-09-11T01:46:22;5.87;84.07
71128;SHT30;59249;59.736;30.568;2022-09-11T01:49:03;5.67;84.04
71128;SHT30;59249;59.736;30.568;2022-09-11T01:51:36;5.83;83.99
71128;SHT30;59249;59.736;30.568;2022-09-11T01:54:12;5.75;84.03
71128;SHT30;59249;59.736;30.568;2022-09-11T01:56:49;5.67;84.60
71128;SHT30;59249;59.736;30.568;2022-09-11T01:59:26;5.62;84.72
71128;SHT30;59249;59.736;30.568;2022-09-11T02:02:07;5.60;84.31
71128;SHT30;59249;59.736;30.568;2022-09-11T02:04:42;5.65;84.27
71128;SHT30;59249;59.736;30.568;2022-09-11T02:07:18;5.56;84.33
71128;SHT30;59249;59.736;30.568;2022-09-11T02:09:57;5.57;84.29
71128;SHT30;59249;59.736;30.568;2022-09-11T02:12:39;5.47;84.45
71128;SHT30;59249;59.736;30.568;2022-09-11T02:15:13;5.51;84.56
71128;SHT30;59249;59.736;30.568;2022-09-11T02:17:52;5.49;84.37
71128;SHT30;59249;59.736;30.568;2022-09-11T02:20:27;5.51;84.69
71128;SHT30;59249;59.736;30.568;2022-09-11T02:22:56;5.42;84.77
71128;SHT30;59249;59.736;30.568;2022-09-11T02:25:25;5.47;84.76
71128;SHT30;59249;59.736;30.568;2022-09-11T02:27:55;5.49;84.53
71128;SHT30;59249;59.736;30.568;2022-09-11T02:30:26;5.42;85.31
71128;SHT30;59249;59.736;30.568;2022-09-11T02:32:55;5.42;86.63
71128;SHT30;59249;59.736;30.568;2022-09-11T02:35:30;5.44;86.36
71128;SHT30;59249;59.736;30.568;2022-09-11T02:38:17;5.50;86.50
71128;SHT30;59249;59.736;30.568;2022-09-11T02:40:59;5.49;85.80
71128;SHT30;59249;59.736;30.568;2022-09-11T02:43:44;5.39;85.80
71128;SHT30;59249;59.736;30.568;2022-09-11T02:49:43;5.39;85.60
71128;SHT30;59249;59.736;30.568;2022-09-11T02:52:27;5.32;86.02
71128;SHT30;59249;59.736;30.568;2022-09-11T02:55:10;5.43;86.74
71128;SHT30;59249;59.736;30.568;2022-09-11T02:57:49;5.32;86.69
71128;SHT30;59249;59.736;30.568;2022-09-11T03:00:19;5.46;87.46
71128;SHT30;59249;59.736;30.568;2022-09-11T03:02:49;5.40;87.21
71128;SHT30;59249;59.736;30.568;2022-09-11T03:05:20;5.35;86.49
71128;SHT30;59249;59.736;30.568;2022-09-11T03:07:49;5.29;86.51
71128;SHT30;59249;59.736;30.568;2022-09-11T03:10:18;5.30;87.12
71128;SHT30;59249;59.736;30.568;2022-09-11T03:12:46;5.30;87.97
71128;SHT30;59249;59.736;30.568;2022-09-11T03:15:15;5.37;87.94
71128;SHT30;59249;59.736;30.568;2022-09-11T03:17:49;5.32;87.94
71128;SHT30;59249;59.736;30.568;2022-09-11T03:20:17;5.28;87.41
71128;SHT30;59249;59.736;30.568;2022-09-11T03:22:48;5.31;87.50
71128;SHT30;59249;59.736;30.568;2022-09-11T03:25:17;5.32;88.52
71128;SHT30;59249;59.736;30.568;2022-09-11T03:27:47;5.26;88.70
71128;SHT30;59249;59.736;30.568;2022-09-11T03:30:17;5.30;88.58
71128;SHT30;59249;59.736;30.568;2022-09-11T03:32:49;5.37;88.34
71128;SHT30;59249;59.736;30.568;2022-09-11T03:35:18;5.38;87.93
71128;SHT30;59249;59.736;30.568;2022-09-11T03:37:48;5.37;87.55
71128;SHT30;59249;59.736;30.568;2022-09-11T03:40:16;5.34;87.23
71128;SHT30;59249;59.736;30.568;2022-09-11T03:42:46;5.36;87.09
71128;SHT30;59249;59.736;30.568;2022-09-11T03:45:16;5.37;86.94
71128;SHT30;59249;59.736;30.568;2022-09-11T03:47:45;5.37;86.83
71128;SHT30;59249;59.736;30.568;2022-09-11T03:50:16;5.39;86.99
71128;SHT30;59249;59.736;30.568;2022-09-11T03:52:46;5.42;87.58
71128;SHT30;59249;59.736;30.568;2022-09-11T03:55:16;5.60;88.13
71128;SHT30;59249;59.736;30.568;2022-09-11T03:57:45;5.62;87.80
71128;SHT30;59249;59.736;30.568;2022-09-11T04:00:14;5.70;87.83
71128;SHT30;59249;59.736;30.568;2022-09-11T04:02:53;5.73;87.72
71128;SHT30;59249;59.736;30.568;2022-09-11T04:05:37;5.78;87.48
71128;SHT30;59249;59.736;30.568;2022-09-11T04:08:06;5.88;87.23
71128;SHT30;59249;59.736;30.568;2022-09-11T04:10:36;5.93;86.81
71128;SHT30;59249;59.736;30.568;2022-09-11T04:13:04;6.05;86.43
71128;SHT30;59249;59.736;30.568;2022-09-11T04:15:33;6.05;86.31
71128;SHT30;59249;59.736;30.568;2022-09-11T04:18:05;6.03;86.31
71128;SHT30;59249;59.736;30.568;2022-09-11T04:20:39;6.02;86.23
71128;SHT30;59249;59.736;30.568;2022-09-11T04:23:08;6.06;86.00
71128;SHT30;59249;59.736;30.568;2022-09-11T04:25:36;6.19;86.04
71128;SHT30;59249;59.736;30.568;2022-09-11T04:28:06;6.26;86.02
71128;SHT30;59249;59.736;30.568;2022-09-11T04:30:35;6.35;85.88
71128;SHT30;59249;59.736;30.568;2022-09-11T04:33:05;6.30;85.71
71128;SHT30;59249;59.736;30.568;2022-09-11T04:35:38;6.39;85.58
71128;SHT30;59249;59.736;30.568;2022-09-11T04:38:07;6.50;85.58
71128;SHT30;59249;59.736;30.568;2022-09-11T04:40:37;6.54;85.58
71128;SHT30;59249;59.736;30.568;2022-09-11T04:43:06;6.63;85.53
71128;SHT30;59249;59.736;30.568;2022-09-11T04:45:37;6.76;85.34
71128;SHT30;59249;59.736;30.568;2022-09-11T04:48:08;6.87;84.80
71128;SHT30;59249;59.736;30.568;2022-09-11T04:50:38;6.91;84.86
71128;SHT30;59249;59.736;30.568;2022-09-11T04:53:17;7.01;84.69
71128;SHT30;59249;59.736;30.568;2022-09-11T04:55:46;7.08;84.73
71128;SHT30;59249;59.736;30.568;2022-09-11T04:58:16;7.20;84.51
71128;SHT30;59249;59.736;30.568;2022-09-11T05:00:45;7.38;84.33
71128;SHT30;59249;59.736;30.568;2022-09-11T05:03:14;7.40;84.12
71128;SHT30;59249;59.736;30.568;2022-09-11T05:05:45;7.45;83.63
71128;SHT30;59249;59.736;30.568;2022-09-11T05:08:14;7.58;83.77
71128;SHT30;59249;59.736;30.568;2022-09-11T05:10:46;7.64;83.58
71128;SHT30;59249;59.736;30.568;2022-09-11T05:13:16;7.70;83.24
71128;SHT30;59249;59.736;30.568;2022-09-11T05:15:44;7.76;83.31
71128;SHT30;59249;59.736;30.568;2022-09-11T05:18:13;7.85;83.06
71128;SHT30;59249;59.736;30.568;2022-09-11T05:20:42;7.94;82.96
71128;SHT30;59249;59.736;30.568;2022-09-11T05:23:13;8.05;83.13
71128;SHT30;59249;59.736;30.568;2022-09-11T05:25:41;8.20;82.92
71128;SHT30;59249;59.736;30.568;2022-09-11T05:28:10;8.29;82.38
71128;SHT30;59249;59.736;30.568;2022-09-11T05:30:40;8.31;82.40
71128;SHT30;59249;59.736;30.568;2022-09-11T05:33:09;8.43;82.15
71128;SHT30;59249;59.736;30.568;2022-09-11T05:35:41;8.49;81.86
71128;SHT30;59249;59.736;30.568;2022-09-11T05:38:10;8.61;82.14
71128;SHT30;59249;59.736;30.568;2022-09-11T05:40:44;8.69;81.99
71128;SHT30;59249;59.736;30.568;2022-09-11T05:43:15;8.81;81.75
71128;SHT30;59249;59.736;30.568;2022-09-11T05:45:52;8.90;81.79
71128;SHT30;59249;59.736;30.568;2022-09-11T05:48:27;9.01;81.52
71128;SHT30;59249;59.736;30.568;2022-09-11T05:51:00;9.13;81.73
71128;SHT30;59249;59.736;30.568;2022-09-11T05:53:30;9.19;81.45
71128;SHT30;59249;59.736;30.568;2022-09-11T05:56:08;9.33;81.52
71128;SHT30;59249;59.736;30.568;2022-09-11T05:58:37;9.43;81.46
71128;SHT30;59249;59.736;30.568;2022-09-11T06:01:10;9.52;81.28
71128;SHT30;59249;59.736;30.568;2022-09-11T06:03:42;9.64;80.76
71128;SHT30;59249;59.736;30.568;2022-09-11T06:06:12;9.78;80.70
71128;SHT30;59249;59.736;30.568;2022-09-11T06:08:42;9.86;80.56
71128;SHT30;59249;59.736;30.568;2022-09-11T06:11:15;10.02;80.39
71128;SHT30;59249;59.736;30.568;2022-09-11T06:13:46;10.05;80.32
71128;SHT30;59249;59.736;30.568;2022-09-11T06:16:20;10.21;80.26
71128;SHT30;59249;59.736;30.568;2022-09-11T06:18:51;10.29;80.17
71128;SHT30;59249;59.736;30.568;2022-09-11T06:21:23;10.35;79.64
71128;SHT30;59249;59.736;30.568;2022-09-11T06:24:01;10.50;79.95
71128;SHT30;59249;59.736;30.568;2022-09-11T06:26:34;10.59;79.82
71128;SHT30;59249;59.736;30.568;2022-09-11T06:29:03;10.70;79.75
71128;SHT30;59249;59.736;30.568;2022-09-11T06:31:35;10.80;79.58
71128;SHT30;59249;59.736;30.568;2022-09-11T06:34:04;10.93;79.09
71128;SHT30;59249;59.736;30.568;2022-09-11T06:36:33;11.09;78.85
71128;SHT30;59249;59.736;30.568;2022-09-11T06:39:05;11.19;78.33
71128;SHT30;59249;59.736;30.568;2022-09-11T06:41:39;11.32;78.41
71128;SHT30;59249;59.736;30.568;2022-09-11T06:44:13;11.52;77.92
71128;SHT30;59249;59.736;30.568;2022-09-11T06:46:42;11.63;77.54
71128;SHT30;59249;59.736;30.568;2022-09-11T06:49:13;11.73;77.42
71128;SHT30;59249;59.736;30.568;2022-09-11T06:52:01;11.83;76.68
71128;SHT30;59249;59.736;30.568;2022-09-11T06:54:30;11.93;76.85
71128;SHT30;59249;59.736;30.568;2022-09-11T06:57:04;12.03;76.62
71128;SHT30;59249;59.736;30.568;2022-09-11T06:59:33;12.05;75.89
71128;SHT30;59249;59.736;30.568;2022-09-11T07:02:01;12.15;75.53
71128;SHT30;59249;59.736;30.568;2022-09-11T07:04:31;12.22;75.78
71128;SHT30;59249;59.736;30.568;2022-09-11T07:06:59;12.30;74.57
71128;SHT30;59249;59.736;30.568;2022-09-11T07:09:28;12.36;74.96
71128;SHT30;59249;59.736;30.568;2022-09-11T07:11:58;12.44;74.70
71128;SHT30;59249;59.736;30.568;2022-09-11T07:14:29;12.54;75.01
71128;SHT30;59249;59.736;30.568;2022-09-11T07:17:09;12.59;74.84
71128;SHT30;59249;59.736;30.568;2022-09-11T07:19:40;12.64;74.84
71128;SHT30;59249;59.736;30.568;2022-09-11T07:22:10;12.66;74.20
71128;SHT30;59249;59.736;30.568;2022-09-11T07:24:41;12.73;74.24
71128;SHT30;59249;59.736;30.568;2022-09-11T07:27:10;12.76;73.46
71128;SHT30;59249;59.736;30.568;2022-09-11T07:29:41;12.81;73.13
71128;SHT30;59249;59.736;30.568;2022-09-11T07:32:11;12.91;73.27
71128;SHT30;59249;59.736;30.568;2022-09-11T07:34:41;12.97;72.86
71128;SHT30;59249;59.736;30.568;2022-09-11T07:37:12;13.04;73.39
71128;SHT30;59249;59.736;30.568;2022-09-11T07:39:41;13.14;73.33
71128;SHT30;59249;59.736;30.568;2022-09-11T07:42:17;13.14;73.22
71128;SHT30;59249;59.736;30.568;2022-09-11T07:44:48;13.29;73.04
71128;SHT30;59249;59.736;30.568;2022-09-11T07:47:17;13.34;72.64
71128;SHT30;59249;59.736;30.568;2022-09-11T07:49:49;13.41;72.41
71128;SHT30;59249;59.736;30.568;2022-09-11T07:52:18;13.47;71.85
71128;SHT30;59249;59.736;30.568;2022-09-11T07:54:51;13.61;70.86
71128;SHT30;59249;59.736;30.568;2022-09-11T07:57:24;13.64;70.63
71128;SHT30;59249;59.736;30.568;2022-09-11T07:59:55;13.68;69.05
71128;SHT30;59249;59.736;30.568;2022-09-11T08:02:26;13.75;68.77
71128;SHT30;59249;59.736;30.568;2022-09-11T08:04:55;13.81;69.22
71128;SHT30;59249;59.736;30.568;2022-09-11T08:07:24;13.85;69.05
71128;SHT30;59249;59.736;30.568;2022-09-11T08:09:53;13.93;68.75
71128;SHT30;59249;59.736;30.568;2022-09-11T08:12:45;14.00;68.55
71128;SHT30;59249;59.736;30.568;2022-09-11T08:15:15;14.07;68.52
71128;SHT30;59249;59.736;30.568;2022-09-11T08:17:44;14.09;68.47
71128;SHT30;59249;59.736;30.568;2022-09-11T08:20:13;14.18;68.78
71128;SHT30;59249;59.736;30.568;2022-09-11T08:22:41;14.24;67.85
71128;SHT30;59249;59.736;30.568;2022-09-11T08:25:12;14.32;67.68
71128;SHT30;59249;59.736;30.568;2022-09-11T08:27:42;14.42;68.36
71128;SHT30;59249;59.736;30.568;2022-09-11T08:30:15;14.46;68.14
71128;SHT30;59249;59.736;30.568;2022-09-11T08:32:44;14.46;66.65
71128;SHT30;59249;59.736;30.568;2022-09-11T08:35:13;14.51;67.04
71128;SHT30;59249;59.736;30.568;2022-09-11T08:37:42;14.55;67.17
71128;SHT30;59249;59.736;30.568;2022-09-11T08:40:11;14.67;66.76
71128;SHT30;59249;59.736;30.568;2022-09-11T08:42:44;14.75;66.36
71128;SHT30;59249;59.736;30.568;2022-09-11T08:45:19;14.77;65.75
71128;SHT30;59249;59.736;30.568;2022-09-11T08:47:55;14.79;65.59
71128;SHT30;59249;59.736;30.568;2022-09-11T08:50:27;14.83;64.13
71128;SHT30;59249;59.736;30.568;2022-09-11T08:53:01;14.92;64.15
71128;SHT30;59249;59.736;30.568;2022-09-11T08:55:38;14.96;63.14
71128;SHT30;59249;59.736;30.568;2022-09-11T08:58:22;15.07;62.27
71128;SHT30;59249;59.736;30.568;2022-09-11T09:01:11;15.11;61.82
71128;SHT30;59249;59.736;30.568;2022-09-11T09:04:04;15.18;61.79
71128;SHT30;59249;59.736;30.568;2022-09-11T09:06:52;15.24;61.65
71128;SHT30;59249;59.736;30.568;2022-09-11T09:09:29;15.31;61.98
71128;SHT30;59249;59.736;30.568;2022-09-11T09:12:12;15.30;62.15
71128;SHT30;59249;59.736;30.568;2022-09-11T09:15:01;15.35;61.88
71128;SHT30;59249;59.736;30.568;2022-09-11T09:17:38;15.41;62.32
71128;SHT30;59249;59.736;30.568;2022-09-11T09:20:15;15.40;60.85
71128;SHT30;59249;59.736;30.568;2022-09-11T09:22:56;15.40;60.14
71128;SHT30;59249;59.736;30.568;2022-09-11T09:25:29;15.49;60.12
71128;SHT30;59249;59.736;30.568;2022-09-11T09:28:07;15.53;59.80
71128;SHT30;59249;59.736;30.568;2022-09-11T09:30:49;15.62;59.84
71128;SHT30;59249;59.736;30.568;2022-09-11T09:33:29;15.67;59.56
71128;SHT30;59249;59.736;30.568;2022-09-11T09:36:11;15.76;58.78
71128;SHT30;59249;59.736;30.568;2022-09-11T09:38:43;15.79;58.07
71128;SHT30;59249;59.736;30.568;2022-09-11T09:41:39;15.74;57.00
71128;SHT30;59249;59.736;30.568;2022-09-11T09:44:19;15.84;57.23
71128;SHT30;59249;59.736;30.568;2022-09-11T09:46:52;15.89;57.24
71128;SHT30;59249;59.736;30.568;2022-09-11T09:49:26;15.97;57.44
71128;SHT30;59249;59.736;30.568;2022-09-11T09:52:00;15.98;56.73
71128;SHT30;59249;59.736;30.568;2022-09-11T09:54:33;16.09;56.47
71128;SHT30;59249;59.736;30.568;2022-09-11T09:57:06;16.13;56.59
71128;SHT30;59249;59.736;30.568;2022-09-11T09:59:41;16.17;57.04
71128;SHT30;59249;59.736;30.568;2022-09-11T10:02:10;16.23;57.15
71128;SHT30;59249;59.736;30.568;2022-09-11T10:04:41;16.32;56.50
71128;SHT30;59249;59.736;30.568;2022-09-11T10:07:12;16.27;56.48
71128;SHT30;59249;59.736;30.568;2022-09-11T10:09:45;16.35;56.36
71128;SHT30;59249;59.736;30.568;2022-09-11T10:12:19;16.38;55.64
71128;SHT30;59249;59.736;30.568;2022-09-11T10:14:54;16.46;55.68
71128;SHT30;59249;59.736;30.568;2022-09-11T10:17:31;16.48;55.90
71128;SHT30;59249;59.736;30.568;2022-09-11T10:20:20;16.53;55.70
71128;SHT30;59249;59.736;30.568;2022-09-11T10:22:51;16.51;55.66
71128;SHT30;59249;59.736;30.568;2022-09-11T10:25:21;16.53;54.51
71128;SHT30;59249;59.736;30.568;2022-09-11T10:28:02;16.65;54.96
71128;SHT30;59249;59.736;30.568;2022-09-11T10:30:35;16.76;55.13
71128;SHT30;59249;59.736;30.568;2022-09-11T10:33:17;16.82;55.39
71128;SHT30;59249;59.736;30.568;2022-09-11T10:35:52;16.94;54.67
71128;SHT30;59249;59.736;30.568;2022-09-11T10:38:28;17.01;54.47
71128;SHT30;59249;59.736;30.568;2022-09-11T10:41:06;17.07;54.51
71128;SHT30;59249;59.736;30.568;2022-09-11T10:43:43;17.07;53.80
71128;SHT30;59249;59.736;30.568;2022-09-11T10:46:29;17.12;53.70
71128;SHT30;59249;59.736;30.568;2022-09-11T10:49:18;16.91;52.90
71128;SHT30;59249;59.736;30.568;2022-09-11T10:52:01;17.04;53.49
71128;SHT30;59249;59.736;30.568;2022-09-11T10:54:53;17.21;54.00
71128;SHT30;59249;59.736;30.568;2022-09-11T10:57:31;17.38;53.80
71128;SHT30;59249;59.736;30.568;2022-09-11T11:00:11;17.38;53.26
71128;SHT30;59249;59.736;30.568;2022-09-11T11:02:45;17.48;54.06
71128;SHT30;59249;59.736;30.568;2022-09-11T11:05:21;17.52;53.37
71128;SHT30;59249;59.736;30.568;2022-09-11T11:08:16;17.52;53.46
71128;SHT30;59249;59.736;30.568;2022-09-11T11:11:02;17.66;53.43
71128;SHT30;59249;59.736;30.568;2022-09-11T11:14:00;17.72;53.55
71128;SHT30;59249;59.736;30.568;2022-09-11T11:16:45;17.71;53.19
71128;SHT30;59249;59.736;30.568;2022-09-11T11:19:45;17.63;51.51
71128;SHT30;59249;59.736;30.568;2022-09-11T11:22:30;17.55;51.50
71128;SHT30;59249;59.736;30.568;2022-09-11T11:25:16;17.66;52.13
71128;SHT30;59249;59.736;30.568;2022-09-11T11:28:26;17.67;51.06
71128;SHT30;59249;59.736;30.568;2022-09-11T11:31:14;17.74;51.14
71128;SHT30;59249;59.736;30.568;2022-09-11T11:34:11;17.87;51.97
71128;SHT30;59249;59.736;30.568;2022-09-11T11:36:48;17.80;50.41
71128;SHT30;59249;59.736;30.568;2022-09-11T11:39:24;17.89;51.29
71128;SHT30;59249;59.736;30.568;2022-09-11T11:42:13;18.00;50.65
71128;SHT30;59249;59.736;30.568;2022-09-11T11:44:48;17.99;51.52
71128;SHT30;59249;59.736;30.568;2022-09-11T11:47:23;18.09;51.14
71128;SHT30;59249;59.736;30.568;2022-09-11T11:50:01;18.06;51.27
71128;SHT30;59249;59.736;30.568;2022-09-11T11:52:42;17.96;49.78
71128;SHT30;59249;59.736;30.568;2022-09-11T11:55:17;18.05;50.58
71128;SHT30;59249;59.736;30.568;2022-09-11T11:57:59;18.12;50.37
71128;SHT30;59249;59.736;30.568;2022-09-11T12:00:39;18.16;49.79
71128;SHT30;59249;59.736;30.568;2022-09-11T12:03:18;18.09;49.57
71128;SHT30;59249;59.736;30.568;2022-09-11T12:05:49;18.18;49.97
71128;SHT30;59249;59.736;30.568;2022-09-11T12:08:18;18.26;50.05
71128;SHT30;59249;59.736;30.568;2022-09-11T12:10:54;18.29;49.75
71128;SHT30;59249;59.736;30.568;2022-09-11T12:13:34;18.33;50.30
71128;SHT30;59249;59.736;30.568;2022-09-11T12:16:14;18.40;49.96
71128;SHT30;59249;59.736;30.568;2022-09-11T12:19:03;18.46;50.16
71128;SHT30;59249;59.736;30.568;2022-09-11T12:21:40;18.43;49.77
71128;SHT30;59249;59.736;30.568;2022-09-11T12:24:16;18.42;49.34
71128;SHT30;59249;59.736;30.568;2022-09-11T12:26:46;18.44;49.77
71128;SHT30;59249;59.736;30.568;2022-09-11T12:29:56;18.27;49.25
71128;SHT30;59249;59.736;30.568;2022-09-11T12:32:43;18.17;49.17
71128;SHT30;59249;59.736;30.568;2022-09-11T12:35:22;18.11;50.36
71128;SHT30;59249;59.736;30.568;2022-09-11T12:38:14;18.14;49.74
71128;SHT30;59249;59.736;30.568;2022-09-11T12:40:51;18.25;49.89
71128;SHT30;59249;59.736;30.568;2022-09-11T12:43:44;18.33;49.75
71128;SHT30;59249;59.736;30.568;2022-09-11T12:47:05;18.43;48.33
71128;SHT30;59249;59.736;30.568;2022-09-11T12:49:37;18.30;49.92
71128;SHT30;59249;59.736;30.568;2022-09-11T12:52:25;18.27;49.62
71128;SHT30;59249;59.736;30.568;2022-09-11T12:54:57;18.08;48.44
71128;SHT30;59249;59.736;30.568;2022-09-11T12:57:32;18.03;49.29
71128;SHT30;59249;59.736;30.568;2022-09-11T13:00:19;18.05;49.31
71128;SHT30;59249;59.736;30.568;2022-09-11T13:02:54;18.08;49.98
71128;SHT30;59249;59.736;30.568;2022-09-11T13:05:30;18.19;49.89
71128;SHT30;59249;59.736;30.568;2022-09-11T13:08:06;18.28;48.97
71128;SHT30;59249;59.736;30.568;2022-09-11T13:10:38;18.21;49.18
71128;SHT30;59249;59.736;30.568;2022-09-11T13:13:43;18.29;49.95
71128;SHT30;59249;59.736;30.568;2022-09-11T13:16:19;18.14;48.81
71128;SHT30;59249;59.736;30.568;2022-09-11T13:18:57;18.26;50.09
71128;SHT30;59249;59.736;30.568;2022-09-11T13:21:26;18.30;49.93
71128;SHT30;59249;59.736;30.568;2022-09-11T13:24:01;18.38;49.41
71128;SHT30;59249;59.736;30.568;2022-09-11T13:26:30;18.38;49.77
71128;SHT30;59249;59.736;30.568;2022-09-11T13:29:00;18.46;50.05
71128;SHT30;59249;59.736;30.568;2022-09-11T13:31:33;18.38;49.65
71128;SHT30;59249;59.736;30.568;2022-09-11T13:34:12;18.41;49.56
71128;SHT30;59249;59.736;30.568;2022-09-11T13:36:42;18.40;49.74
71128;SHT30;59249;59.736;30.568;2022-09-11T13:39:14;18.43;50.04
71128;SHT30;59249;59.736;30.568;2022-09-11T13:41:48;18.30;49.26
71128;SHT30;59249;59.736;30.568;2022-09-11T13:44:35;18.21;49.18
71128;SHT30;59249;59.736;30.568;2022-09-11T13:47:18;18.18;49.21
71128;SHT30;59249;59.736;30.568;2022-09-11T13:49:52;18.23;49.78
71128;SHT30;59249;59.736;30.568;2022-09-11T13:52:27;18.25;49.62
71128;SHT30;59249;59.736;30.568;2022-09-11T13:54:59;18.20;49.97
71128;SHT30;59249;59.736;30.568;2022-09-11T13:57:30;18.11;49.35
71128;SHT30;59249;59.736;30.568;2022-09-11T14:00:00;18.09;48.81
71128;SHT30;59249;59.736;30.568;2022-09-11T14:02:47;18.13;49.80
71128;SHT30;59249;59.736;30.568;2022-09-11T14:05:23;18.09;49.93
71128;SHT30;59249;59.736;30.568;2022-09-11T14:07:58;18.18;50.55
71128;SHT30;59249;59.736;30.568;2022-09-11T14:10:31;18.12;50.47
71128;SHT30;59249;59.736;30.568;2022-09-11T14:13:12;18.07;49.42
71128;SHT30;59249;59.736;30.568;2022-09-11T14:15:49;18.03;49.98
71128;SHT30;59249;59.736;30.568;2022-09-11T14:18:33;18.07;50.03
71128;SHT30;59249;59.736;30.568;2022-09-11T14:21:11;18.12;50.76
71128;SHT30;59249;59.736;30.568;2022-09-11T14:23:45;18.07;50.43
71128;SHT30;59249;59.736;30.568;2022-09-11T14:26:18;18.05;50.40
71128;SHT30;59249;59.736;30.568;2022-09-11T14:29:04;17.99;50.43
71128;SHT30;59249;59.736;30.568;2022-09-11T14:31:36;17.98;50.80
71128;SHT30;59249;59.736;30.568;2022-09-11T14:34:15;18.02;51.05
71128;SHT30;59249;59.736;30.568;2022-09-11T14:36:51;17.86;50.30
71128;SHT30;59249;59.736;30.568;2022-09-11T14:39:28;17.79;50.72
71128;SHT30;59249;59.736;30.568;2022-09-11T14:41:59;17.73;50.79
71128;SHT30;59249;59.736;30.568;2022-09-11T14:44:29;17.69;50.90
71128;SHT30;59249;59.736;30.568;2022-09-11T14:46:59;17.78;50.32
71128;SHT30;59249;59.736;30.568;2022-09-11T14:49:28;17.74;50.62
71128;SHT30;59249;59.736;30.568;2022-09-11T14:51:59;17.91;51.10
71128;SHT30;59249;59.736;30.568;2022-09-11T14:54:35;18.02;50.27
71128;SHT30;59249;59.736;30.568;2022-09-11T14:57:11;18.06;50.41
71128;SHT30;59249;59.736;30.568;2022-09-11T14:59:47;18.33;50.54
71128;SHT30;59249;59.736;30.568;2022-09-11T15:02:18;18.47;50.45
71128;SHT30;59249;59.736;30.568;2022-09-11T15:04:48;18.65;50.78
71128;SHT30;59249;59.736;30.568;2022-09-11T15:07:21;18.80;50.29
71128;SHT30;59249;59.736;30.568;2022-09-11T15:09:51;18.91;50.55
71128;SHT30;59249;59.736;30.568;2022-09-11T15:12:21;19.13;50.27
71128;SHT30;59249;59.736;30.568;2022-09-11T15:14:50;19.27;49.45
71128;SHT30;59249;59.736;30.568;2022-09-11T15:17:25;19.13;50.30
71128;SHT30;59249;59.736;30.568;2022-09-11T15:19:58;19.29;49.49
71128;SHT30;59249;59.736;30.568;2022-09-11T15:22:28;19.28;49.63
71128;SHT30;59249;59.736;30.568;2022-09-11T15:24:57;19.14;49.56
71128;SHT30;59249;59.736;30.568;2022-09-11T15:27:26;19.19;49.62
71128;SHT30;59249;59.736;30.568;2022-09-11T15:29:55;19.20;49.57
71128;SHT30;59249;59.736;30.568;2022-09-11T15:32:24;19.14;49.41
71128;SHT30;59249;59.736;30.568;2022-09-11T15:34:53;19.16;49.31
71128;SHT30;59249;59.736;30.568;2022-09-11T15:37:23;19.16;49.53
71128;SHT30;59249;59.736;30.568;2022-09-11T15:39:53;19.14;49.81
71128;SHT30;59249;59.736;30.568;2022-09-11T15:42:22;19.12;50.28
71128;SHT30;59249;59.736;30.568;2022-09-11T15:44:51;19.17;50.23
71128;SHT30;59249;59.736;30.568;2022-09-11T15:47:20;19.04;50.55
71128;SHT30;59249;59.736;30.568;2022-09-11T15:49:49;18.95;50.86
71128;SHT30;59249;59.736;30.568;2022-09-11T15:52:18;18.84;51.15
71128;SHT30;59249;59.736;30.568;2022-09-11T15:54:47;18.87;51.86
71128;SHT30;59249;59.736;30.568;2022-09-11T15:57:19;18.96;52.80
71128;SHT30;59249;59.736;30.568;2022-09-11T15:59:48;18.93;52.90
71128;SHT30;59249;59.736;30.568;2022-09-11T16:02:18;18.82;53.77
71128;SHT30;59249;59.736;30.568;2022-09-11T16:04:48;18.69;54.37
71128;SHT30;59249;59.736;30.568;2022-09-11T16:07:21;18.58;55.01
71128;SHT30;59249;59.736;30.568;2022-09-11T16:09:50;18.40;55.47
71128;SHT30;59249;59.736;30.568;2022-09-11T16:12:20;18.21;56.29
71128;SHT30;59249;59.736;30.568;2022-09-11T16:14:49;17.98;56.75